sensor_id;sensor_type;location;lat;lon;timestamp;temperature;humidity
67603;DHT22;54417;47.454;18.918;2022-10-26T00:01:15;6.79;93.85
67603;DHT22;54417;47.454;18.918;2022-10-26T00:06:39;6.75;93.73
67603;DHT22;54417;47.454;18.918;2022-10-26T00:12:02;6.69;93.52
67603;DHT22;54417;47.454;18.918;2022-10-26T00:17:28;6.69;93.98
67603;DHT22;54417;47.454;18.918;2022-10-26T00:22:51;6.79;94.50
67603;DHT22;54417;47.454;18.918;2022-10-26T00:28:15;6.80;94.50
67603;DHT22;54417;47.454;18.918;2022-10-26T00:33:40;6.94;94.93
67603;DHT22;54417;47.454;18.918;2022-10-26T00:39:04;7.08;95.31
67603;DHT22;54417;47.454;18.918;2022-10-26T00:44:59;6.93;94.44
67603;DHT22;54417;47.454;18.918;2022-10-26T00:50:27;6.90;94.82
67603;DHT22;54417;47.454;18.918;2022-10-26T00:55:53;6.83;94.61
67603;DHT22;54417;47.454;18.918;2022-10-26T01:01:17;6.87;94.71
67603;DHT22;54417;47.454;18.918;2022-10-26T01:06:42;6.93;94.96
67603;DHT22;54417;47.454;18.918;2022-10-26T01:12:05;6.94;94.94
67603;DHT22;54417;47.454;18.918;2022-10-26T01:17:38;6.97;95.00
67603;DHT22;54417;47.454;18.918;2022-10-26T01:23:07;6.94;94.84
67603;DHT22;54417;47.454;18.918;2022-10-26T01:28:51;7.03;95.32
67603;DHT22;54417;47.454;18.918;2022-10-26T01:34:19;7.03;95.24
67603;DHT22;54417;47.454;18.918;2022-10-26T01:39:46;7.23;95.68
67603;DHT22;54417;47.454;18.918;2022-10-26T01:45:13;7.07;94.97
67603;DHT22;54417;47.454;18.918;2022-10-26T01:50:40;6.90;94.72
67603;DHT22;54417;47.454;18.918;2022-10-26T01:56:13;6.83;94.71
67603;DHT22;54417;47.454;18.918;2022-10-26T02:07:33;6.73;94.70
67603;DHT22;54417;47.454;18.918;2022-10-26T02:13:07;6.65;94.61
67603;DHT22;54417;47.454;18.918;2022-10-26T02:18:36;6.62;94.57
67603;DHT22;54417;47.454;18.918;2022-10-26T02:24:02;6.56;94.69
67603;DHT22;54417;47.454;18.918;2022-10-26T02:29:33;6.57;94.63
67603;DHT22;54417;47.454;18.918;2022-10-26T02:34:59;6.52;94.56
67603;DHT22;54417;47.454;18.918;2022-10-26T02:40:27;6.46;94.55
67603;DHT22;54417;47.454;18.918;2022-10-26T02:45:53;6.38;94.55
67603;DHT22;54417;47.454;18.918;2022-10-26T02:51:25;6.34;94.71
67603;DHT22;54417;47.454;18.918;2022-10-26T02:56:57;6.34;94.87
67603;DHT22;54417;47.454;18.918;2022-10-26T03:02:22;6.32;94.98
67603;DHT22;54417;47.454;18.918;2022-10-26T03:07:46;6.31;95.09
67603;DHT22;54417;47.454;18.918;2022-10-26T03:13:12;6.31;95.00
67603;DHT22;54417;47.454;18.918;2022-10-26T03:18:35;6.44;95.55
67603;DHT22;54417;47.454;18.918;2022-10-26T03:23:59;6.38;95.15
67603;DHT22;54417;47.454;18.918;2022-10-26T03:29:24;6.39;95.21
67603;DHT22;54417;47.454;18.918;2022-10-26T03:34:48;6.31;94.97
67603;DHT22;54417;47.454;18.918;2022-10-26T03:40:12;6.44;95.35
67603;DHT22;54417;47.454;18.918;2022-10-26T03:45:37;6.55;95.66
67603;DHT22;54417;47.454;18.918;2022-10-26T03:51:00;6.46;95.10
67603;DHT22;54417;47.454;18.918;2022-10-26T03:56:24;6.45;95.41
67603;DHT22;54417;47.454;18.918;2022-10-26T04:01:49;6.35;95.04
67603;DHT22;54417;47.454;18.918;2022-10-26T04:07:19;6.22;94.81
67603;DHT22;54417;47.454;18.918;2022-10-26T04:12:42;6.35;95.50
67603;DHT22;54417;47.454;18.918;2022-10-26T04:18:08;6.44;95.87
67603;DHT22;54417;47.454;18.918;2022-10-26T04:23:34;6.29;95.06
67603;DHT22;54417;47.454;18.918;2022-10-26T04:28:57;6.15;94.81
67603;DHT22;54417;47.454;18.918;2022-10-26T04:34:22;6.15;95.16
67603;DHT22;54417;47.454;18.918;2022-10-26T04:39:46;6.17;95.26
67603;DHT22;54417;47.454;18.918;2022-10-26T04:45:11;6.13;94.86
67603;DHT22;54417;47.454;18.918;2022-10-26T04:50:36;6.08;94.43
67603;DHT22;54417;47.454;18.918;2022-10-26T04:56:00;6.03;94.35
67603;DHT22;54417;47.454;18.918;2022-10-26T05:01:24;5.97;94.24
67603;DHT22;54417;47.454;18.918;2022-10-26T05:06:51;5.86;94.39
67603;DHT22;54417;47.454;18.918;2022-10-26T05:12:14;5.96;94.35
67603;DHT22;54417;47.454;18.918;2022-10-26T05:17:38;5.93;94.27
67603;DHT22;54417;47.454;18.918;2022-10-26T05:23:09;5.93;94.62
67603;DHT22;54417;47.454;18.918;2022-10-26T05:28:33;6.18;95.58
67603;DHT22;54417;47.454;18.918;2022-10-26T05:33:56;6.39;95.40
67603;DHT22;54417;47.454;18.918;2022-10-26T05:39:21;6.69;95.93
67603;DHT22;54417;47.454;18.918;2022-10-26T05:44:45;6.75;95.05
67603;DHT22;54417;47.454;18.918;2022-10-26T05:50:10;6.89;95.38
67603;DHT22;54417;47.454;18.918;2022-10-26T05:55:37;7.11;95.20
67603;DHT22;54417;47.454;18.918;2022-10-26T06:01:09;7.32;95.21
67603;DHT22;54417;47.454;18.918;2022-10-26T06:06:38;7.58;95.07
67603;DHT22;54417;47.454;18.918;2022-10-26T06:12:07;7.82;94.92
67603;DHT22;54417;47.454;18.918;2022-10-26T06:17:39;8.19;94.71
67603;DHT22;54417;47.454;18.918;2022-10-26T06:23:22;8.40;94.29
67603;DHT22;54417;47.454;18.918;2022-10-26T06:28:59;8.71;94.01
67603;DHT22;54417;47.454;18.918;2022-10-26T06:34:30;9.02;93.53
67603;DHT22;54417;47.454;18.918;2022-10-26T06:39:56;9.33;93.18
67603;DHT22;54417;47.454;18.918;2022-10-26T06:45:22;9.60;93.00
67603;DHT22;54417;47.454;18.918;2022-10-26T06:50:50;9.81;92.80
67603;DHT22;54417;47.454;18.918;2022-10-26T06:56:15;10.10;92.42
67603;DHT22;54417;47.454;18.918;2022-10-26T07:01:40;10.35;91.99
67603;DHT22;54417;47.454;18.918;2022-10-26T07:07:04;10.59;91.76
67603;DHT22;54417;47.454;18.918;2022-10-26T07:12:28;10.88;91.35
67603;DHT22;54417;47.454;18.918;2022-10-26T07:17:55;11.12;90.85
67603;DHT22;54417;47.454;18.918;2022-10-26T07:23:19;11.46;90.10
67603;DHT22;54417;47.454;18.918;2022-10-26T07:28:47;11.83;89.78
67603;DHT22;54417;47.454;18.918;2022-10-26T07:34:12;12.16;89.57
67603;DHT22;54417;47.454;18.918;2022-10-26T07:39:35;12.46;89.04
67603;DHT22;54417;47.454;18.918;2022-10-26T07:44:59;12.79;88.35
67603;DHT22;54417;47.454;18.918;2022-10-26T07:50:24;12.97;87.82
67603;DHT22;54417;47.454;18.918;2022-10-26T07:55:52;13.18;87.03
67603;DHT22;54417;47.454;18.918;2022-10-26T08:01:16;13.41;86.32
67603;DHT22;54417;47.454;18.918;2022-10-26T08:06:41;13.55;85.82
67603;DHT22;54417;47.454;18.918;2022-10-26T08:12:05;13.62;85.96
67603;DHT22;54417;47.454;18.918;2022-10-26T08:17:29;13.78;85.53
67603;DHT22;54417;47.454;18.918;2022-10-26T08:22:56;13.92;85.14
67603;DHT22;54417;47.454;18.918;2022-10-26T08:28:20;14.17;85.44
67603;DHT22;54417;47.454;18.918;2022-10-26T08:33:43;14.37;85.94
67603;DHT22;54417;47.454;18.918;2022-10-26T08:39:08;14.64;84.59
67603;DHT22;54417;47.454;18.918;2022-10-26T08:44:35;14.74;84.53
67603;DHT22;54417;47.454;18.918;2022-10-26T08:50:02;14.85;84.25
67603;DHT22;54417;47.454;18.918;2022-10-26T08:55:33;14.82;84.75
67603;DHT22;54417;47.454;18.918;2022-10-26T09:00:58;14.96;85.60
67603;DHT22;54417;47.454;18.918;2022-10-26T09:06:26;15.11;86.10
67603;DHT22;54417;47.454;18.918;2022-10-26T09:12:01;15.23;85.39
67603;DHT22;54417;47.454;18.918;2022-10-26T09:17:35;15.19;85.44
67603;DHT22;54417;47.454;18.918;2022-10-26T09:23:06;15.19;85.42
67603;DHT22;54417;47.454;18.918;2022-10-26T09:28:36;15.33;85.76
67603;DHT22;54417;47.454;18.918;2022-10-26T09:34:01;15.51;85.66
67603;DHT22;54417;47.454;18.918;2022-10-26T09:39:34;15.81;84.55
67603;DHT22;54417;47.454;18.918;2022-10-26T09:45:04;16.28;83.57
67603;DHT22;54417;47.454;18.918;2022-10-26T09:50:32;16.36;83.99
67603;DHT22;54417;47.454;18.918;2022-10-26T09:56:00;16.45;83.03
67603;DHT22;54417;47.454;18.918;2022-10-26T10:01:32;16.59;82.15
67603;DHT22;54417;47.454;18.918;2022-10-26T10:07:12;16.32;82.33
67603;DHT22;54417;47.454;18.918;2022-10-26T10:12:36;16.30;82.39
67603;DHT22;54417;47.454;18.918;2022-10-26T10:18:01;16.62;81.37
67603;DHT22;54417;47.454;18.918;2022-10-26T10:23:27;16.83;81.66
67603;DHT22;54417;47.454;18.918;2022-10-26T10:28:56;16.91;79.94
67603;DHT22;54417;47.454;18.918;2022-10-26T10:34:22;16.93;80.68
67603;DHT22;54417;47.454;18.918;2022-10-26T10:39:46;17.36;79.64
67603;DHT22;54417;47.454;18.918;2022-10-26T10:45:18;17.69;79.25
67603;DHT22;54417;47.454;18.918;2022-10-26T10:50:55;17.59;77.61
67603;DHT22;54417;47.454;18.918;2022-10-26T10:56:32;17.59;77.47
67603;DHT22;54417;47.454;18.918;2022-10-26T11:02:10;17.53;77.87
67603;DHT22;54417;47.454;18.918;2022-10-26T11:07:43;17.75;78.07
67603;DHT22;54417;47.454;18.918;2022-10-26T11:13:15;18.02;77.52
67603;DHT22;54417;47.454;18.918;2022-10-26T11:18:44;18.30;76.21
67603;DHT22;54417;47.454;18.918;2022-10-26T11:24:15;18.30;76.24
67603;DHT22;54417;47.454;18.918;2022-10-26T11:29:46;18.07;76.32
67603;DHT22;54417;47.454;18.918;2022-10-26T11:35:15;17.82;77.54
67603;DHT22;54417;47.454;18.918;2022-10-26T11:40:48;17.68;78.21
67603;DHT22;54417;47.454;18.918;2022-10-26T11:46:17;17.79;78.60
67603;DHT22;54417;47.454;18.918;2022-10-26T11:51:47;18.07;77.57
67603;DHT22;54417;47.454;18.918;2022-10-26T11:57:15;18.62;76.72
67603;DHT22;54417;47.454;18.918;2022-10-26T12:02:40;18.99;75.60
67603;DHT22;54417;47.454;18.918;2022-10-26T12:08:13;18.95;74.30
67603;DHT22;54417;47.454;18.918;2022-10-26T12:13:44;19.22;74.07
67603;DHT22;54417;47.454;18.918;2022-10-26T12:19:15;19.54;73.21
67603;DHT22;54417;47.454;18.918;2022-10-26T12:24:42;19.68;71.67
67603;DHT22;54417;47.454;18.918;2022-10-26T12:30:24;19.53;72.69
67603;DHT22;54417;47.454;18.918;2022-10-26T12:35:49;18.99;73.39
67603;DHT22;54417;47.454;18.918;2022-10-26T12:41:18;18.55;74.65
67603;DHT22;54417;47.454;18.918;2022-10-26T12:46:43;18.34;75.79
67603;DHT22;54417;47.454;18.918;2022-10-26T12:52:21;18.17;75.81
67603;DHT22;54417;47.454;18.918;2022-10-26T12:57:51;18.26;75.76
67603;DHT22;54417;47.454;18.918;2022-10-26T13:03:31;18.34;75.88
67603;DHT22;54417;47.454;18.918;2022-10-26T13:08:57;18.33;75.99
67603;DHT22;54417;47.454;18.918;2022-10-26T13:14:26;18.30;75.82
67603;DHT22;54417;47.454;18.918;2022-10-26T13:19:56;18.43;76.13
67603;DHT22;54417;47.454;18.918;2022-10-26T13:25:23;18.29;76.31
67603;DHT22;54417;47.454;18.918;2022-10-26T13:30:47;18.04;76.56
67603;DHT22;54417;47.454;18.918;2022-10-26T13:36:17;17.97;77.09
67603;DHT22;54417;47.454;18.918;2022-10-26T13:41:46;17.87;77.60
67603;DHT22;54417;47.454;18.918;2022-10-26T13:47:21;17.72;78.91
67603;DHT22;54417;47.454;18.918;2022-10-26T13:52:49;17.62;78.73
67603;DHT22;54417;47.454;18.918;2022-10-26T13:58:18;17.51;79.61
67603;DHT22;54417;47.454;18.918;2022-10-26T14:03:43;17.53;80.49
67603;DHT22;54417;47.454;18.918;2022-10-26T14:09:13;17.59;80.31
67603;DHT22;54417;47.454;18.918;2022-10-26T14:14:39;17.63;79.71
67603;DHT22;54417;47.454;18.918;2022-10-26T14:20:03;17.78;79.06
67603;DHT22;54417;47.454;18.918;2022-10-26T14:25:28;17.85;79.37
67603;DHT22;54417;47.454;18.918;2022-10-26T14:31:10;17.75;79.06
67603;DHT22;54417;47.454;18.918;2022-10-26T14:36:43;17.68;79.70
67603;DHT22;54417;47.454;18.918;2022-10-26T14:42:16;17.42;80.58
67603;DHT22;54417;47.454;18.918;2022-10-26T14:47:47;17.35;81.86
67603;DHT22;54417;47.454;18.918;2022-10-26T14:53:14;17.17;81.83
67603;DHT22;54417;47.454;18.918;2022-10-26T14:58:39;17.00;82.74
67603;DHT22;54417;47.454;18.918;2022-10-26T15:04:05;16.93;82.64
67603;DHT22;54417;47.454;18.918;2022-10-26T15:09:31;16.69;83.98
67603;DHT22;54417;47.454;18.918;2022-10-26T15:14:59;16.56;83.78
67603;DHT22;54417;47.454;18.918;2022-10-26T15:20:30;16.36;84.58
67603;DHT22;54417;47.454;18.918;2022-10-26T15:25:55;16.19;85.07
67603;DHT22;54417;47.454;18.918;2022-10-26T15:31:31;15.98;85.54
67603;DHT22;54417;47.454;18.918;2022-10-26T15:36:55;15.90;85.72
67603;DHT22;54417;47.454;18.918;2022-10-26T15:42:19;15.73;86.24
67603;DHT22;54417;47.454;18.918;2022-10-26T15:47:44;15.67;86.23
67603;DHT22;54417;47.454;18.918;2022-10-26T15:53:15;15.49;86.48
67603;DHT22;54417;47.454;18.918;2022-10-26T15:58:39;15.42;86.70
67603;DHT22;54417;47.454;18.918;2022-10-26T16:04:04;15.49;86.62
67603;DHT22;54417;47.454;18.918;2022-10-26T16:09:28;15.32;86.71
67603;DHT22;54417;47.454;18.918;2022-10-26T16:14:51;15.32;86.81
67603;DHT22;54417;47.454;18.918;2022-10-26T16:20:28;15.18;87.17
67603;DHT22;54417;47.454;18.918;2022-10-26T16:25:51;15.06;87.38
67603;DHT22;54417;47.454;18.918;2022-10-26T16:31:17;15.01;87.53
67603;DHT22;54417;47.454;18.918;2022-10-26T16:36:42;14.93;87.60
67603;DHT22;54417;47.454;18.918;2022-10-26T16:42:06;14.91;87.60
67603;DHT22;54417;47.454;18.918;2022-10-26T16:47:32;14.82;87.87
67603;DHT22;54417;47.454;18.918;2022-10-26T16:52:59;14.74;88.09
67603;DHT22;54417;47.454;18.918;2022-10-26T16:58:23;14.70;88.10
67603;DHT22;54417;47.454;18.918;2022-10-26T17:03:48;14.67;88.10
67603;DHT22;54417;47.454;18.918;2022-10-26T17:09:13;14.57;88.17
67603;DHT22;54417;47.454;18.918;2022-10-26T17:14:37;14.57;88.04
67603;DHT22;54417;47.454;18.918;2022-10-26T17:20:00;14.48;88.28
67603;DHT22;54417;47.454;18.918;2022-10-26T17:25:25;14.44;88.36
67603;DHT22;54417;47.454;18.918;2022-10-26T17:30:49;14.43;88.43
67603;DHT22;54417;47.454;18.918;2022-10-26T17:36:13;14.43;88.49
67603;DHT22;54417;47.454;18.918;2022-10-26T17:41:39;14.38;88.43
67603;DHT22;54417;47.454;18.918;2022-10-26T17:47:03;14.20;88.68
67603;DHT22;54417;47.454;18.918;2022-10-26T17:52:26;14.03;89.10
67603;DHT22;54417;47.454;18.918;2022-10-26T17:57:51;13.82;89.35
67603;DHT22;54417;47.454;18.918;2022-10-26T18:03:15;13.65;89.63
67603;DHT22;54417;47.454;18.918;2022-10-26T18:08:39;13.43;89.96
67603;DHT22;54417;47.454;18.918;2022-10-26T18:14:04;13.30;90.03
67603;DHT22;54417;47.454;18.918;2022-10-26T18:19:27;13.11;89.99
67603;DHT22;54417;47.454;18.918;2022-10-26T18:24:51;12.95;90.25
67603;DHT22;54417;47.454;18.918;2022-10-26T18:30:16;12.75;90.51
67603;DHT22;54417;47.454;18.918;2022-10-26T18:35:40;12.68;90.91
67603;DHT22;54417;47.454;18.918;2022-10-26T18:41:05;12.56;91.11
67603;DHT22;54417;47.454;18.918;2022-10-26T18:46:31;12.39;90.76
67603;DHT22;54417;47.454;18.918;2022-10-26T18:52:00;12.22;91.05
67603;DHT22;54417;47.454;18.918;2022-10-26T18:57:24;12.07;91.22
67603;DHT22;54417;47.454;18.918;2022-10-26T19:02:51;11.97;91.44
67603;DHT22;54417;47.454;18.918;2022-10-26T19:08:18;11.86;91.53
67603;DHT22;54417;47.454;18.918;2022-10-26T19:13:48;11.80;91.74
67603;DHT22;54417;47.454;18.918;2022-10-26T19:19:16;11.73;91.67
67603;DHT22;54417;47.454;18.918;2022-10-26T19:24:39;11.63;91.83
67603;DHT22;54417;47.454;18.918;2022-10-26T19:30:07;11.63;91.98
67603;DHT22;54417;47.454;18.918;2022-10-26T19:35:34;11.65;91.99
67603;DHT22;54417;47.454;18.918;2022-10-26T19:41:03;11.73;92.58
67603;DHT22;54417;47.454;18.918;2022-10-26T19:46:28;11.86;92.69
67603;DHT22;54417;47.454;18.918;2022-10-26T19:51:55;11.86;92.25
67603;DHT22;54417;47.454;18.918;2022-10-26T19:57:19;11.89;91.93
67603;DHT22;54417;47.454;18.918;2022-10-26T20:02:42;11.86;91.66
67603;DHT22;54417;47.454;18.918;2022-10-26T20:08:07;11.83;91.93
67603;DHT22;54417;47.454;18.918;2022-10-26T20:13:31;11.79;91.98
67603;DHT22;54417;47.454;18.918;2022-10-26T20:18:59;11.74;91.62
67603;DHT22;54417;47.454;18.918;2022-10-26T20:24:24;11.66;91.34
67603;DHT22;54417;47.454;18.918;2022-10-26T20:29:48;11.44;91.16
67603;DHT22;54417;47.454;18.918;2022-10-26T20:35:11;11.31;91.55
67603;DHT22;54417;47.454;18.918;2022-10-26T20:40:37;11.22;91.59
67603;DHT22;54417;47.454;18.918;2022-10-26T20:46:01;11.19;91.66
67603;DHT22;54417;47.454;18.918;2022-10-26T20:51:34;11.16;91.70
67603;DHT22;54417;47.454;18.918;2022-10-26T20:57:06;11.22;91.57
67603;DHT22;54417;47.454;18.918;2022-10-26T21:02:31;11.11;91.67
67603;DHT22;54417;47.454;18.918;2022-10-26T21:07:54;11.14;91.67
67603;DHT22;54417;47.454;18.918;2022-10-26T21:13:20;11.11;92.23
67603;DHT22;54417;47.454;18.918;2022-10-26T21:18:44;11.14;92.21
67603;DHT22;54417;47.454;18.918;2022-10-26T21:24:08;11.14;92.17
67603;DHT22;54417;47.454;18.918;2022-10-26T21:29:33;11.11;91.99
67603;DHT22;54417;47.454;18.918;2022-10-26T21:34:57;11.10;92.00
67603;DHT22;54417;47.454;18.918;2022-10-26T21:40:20;11.12;92.08
67603;DHT22;54417;47.454;18.918;2022-10-26T21:45:45;11.15;92.03
67603;DHT22;54417;47.454;18.918;2022-10-26T21:51:11;11.18;91.90
67603;DHT22;54417;47.454;18.918;2022-10-26T21:56:35;11.21;91.82
67603;DHT22;54417;47.454;18.918;2022-10-26T22:02:00;11.31;91.56
67603;DHT22;54417;47.454;18.918;2022-10-26T22:07:24;11.21;91.57
67603;DHT22;54417;47.454;18.918;2022-10-26T22:12:47;11.14;91.67
67603;DHT22;54417;47.454;18.918;2022-10-26T22:18:13;11.14;91.68
67603;DHT22;54417;47.454;18.918;2022-10-26T22:23:38;11.22;91.51
67603;DHT22;54417;47.454;18.918;2022-10-26T22:29:02;11.16;91.40
67603;DHT22;54417;47.454;18.918;2022-10-26T22:34:27;11.15;91.34
67603;DHT22;54417;47.454;18.918;2022-10-26T22:39:51;11.07;91.43
67603;DHT22;54417;47.454;18.918;2022-10-26T22:45:14;11.02;91.50
67603;DHT22;54417;47.454;18.918;2022-10-26T22:50:39;10.98;91.36
67603;DHT22;54417;47.454;18.918;2022-10-26T22:56:04;10.91;91.49
67603;DHT22;54417;47.454;18.918;2022-10-26T23:01:31;10.85;91.45
67603;DHT22;54417;47.454;18.918;2022-10-26T23:06:56;10.80;91.64
67603;DHT22;54417;47.454;18.918;2022-10-26T23:12:20;10.64;92.08
67603;DHT22;54417;47.454;18.918;2022-10-26T23:17:43;10.60;92.45
67603;DHT22;54417;47.454;18.918;2022-10-26T23:23:08;10.60;92.51
67603;DHT22;54417;47.454;18.918;2022-10-26T23:28:32;10.63;92.82
67603;DHT22;54417;47.454;18.918;2022-10-26T23:33:56;10.71;92.65
67603;DHT22;54417;47.454;18.918;2022-10-26T23:39:21;10.67;92.20
67603;DHT22;54417;47.454;18.918;2022-10-26T23:44:45;10.50;91.96
67603;DHT22;54417;47.454;18.918;2022-10-26T23:50:08;10.33;91.96
67603;DHT22;54417;47.454;18.918;2022-10-26T23:55:33;10.19;91.82
